Time;durP1;ratioP1;P1;durP2;ratioP2;P2;SDS_P1;SDS_P2;PMS_P1;PMS_P2;Temp;Humidity;BMP_temperature;BMP_pressure;BME280_temperature;BME280_humidity;BME280_pressure;Samples;Min_cycle;Max_cycle;Signal;HPM_P1;HPM_P2
2023/02/14 00:00:51;;;;;;;;;;;18.90;52.30;;;;;;7522586;23;19928;-76
2023/02/14 00:03:51;;;;;;;;;;;18.90;52.30;;;;;;7523730;23;20222;-76
2023/02/14 00:06:52;;;;;;;;;;;18.90;52.30;;;;;;7523587;23;19951;-77
2023/02/14 00:09:52;;;;;;;;;;;18.90;52.30;;;;;;7524301;23;20277;-75
2023/02/14 00:12:53;;;;;;;;;;;18.90;52.30;;;;;;7523178;23;19912;-75
2023/02/14 00:15:54;;;;;;;;;;;18.90;52.40;;;;;;7523955;23;19905;-76
2023/02/14 00:19:04;;;;;;;;;;;18.90;52.40;;;;;;7523834;23;19906;-76
2023/02/14 00:22:04;;;;;;;;;;;18.90;52.30;;;;;;7524164;23;19922;-76
2023/02/14 00:25:05;;;;;;;;;;;18.90;52.40;;;;;;7570408;23;19953;-76
2023/02/14 00:28:05;;;;;;;;;;;18.90;52.40;;;;;;7523292;23;19905;-76
2023/02/14 00:31:06;;;;;;;;;;;18.90;52.30;;;;;;7523910;23;19910;-76
2023/02/14 00:34:07;;;;;;;;;;;18.90;52.40;;;;;;7523160;23;19991;-75
2023/02/14 00:37:07;;;;;;;;;;;18.90;52.40;;;;;;7523453;23;19912;-75
2023/02/14 00:40:08;;;;;;;;;;;18.90;52.40;;;;;;7523940;23;20233;-76
2023/02/14 00:43:09;;;;;;;;;;;18.90;52.40;;;;;;7524073;23;19906;-76
2023/02/14 00:46:09;;;;;;;;;;;18.90;52.40;;;;;;7523469;23;20320;-75
2023/02/14 00:49:10;;;;;;;;;;;18.90;52.40;;;;;;7523761;23;20317;-76
2023/02/14 00:52:10;;;;;;;;;;;18.90;52.40;;;;;;7523746;23;19993;-76
2023/02/14 00:55:11;;;;;;;;;;;18.90;52.40;;;;;;7523643;23;19910;-75
2023/02/14 00:58:11;;;;;;;;;;;18.90;52.40;;;;;;7523494;23;19909;-75
2023/02/14 01:01:13;;;;;;;;;;;18.90;52.40;;;;;;7523601;23;20280;-75
2023/02/14 01:04:13;;;;;;;;;;;18.90;52.40;;;;;;7523314;23;19945;-76
2023/02/14 01:07:14;;;;;;;;;;;18.90;52.40;;;;;;7524163;23;19982;-75
2023/02/14 01:10:15;;;;;;;;;;;18.90;52.40;;;;;;7525671;23;19921;-75
2023/02/14 01:13:15;;;;;;;;;;;18.90;52.40;;;;;;7523342;23;19910;-75
2023/02/14 01:16:17;;;;;;;;;;;18.90;52.40;;;;;;7523913;23;19984;-76
2023/02/14 01:19:18;;;;;;;;;;;18.90;52.40;;;;;;7523844;23;20040;-76
2023/02/14 01:22:18;;;;;;;;;;;18.90;52.40;;;;;;7523601;23;19909;-76
2023/02/14 01:25:19;;;;;;;;;;;18.90;52.40;;;;;;7523546;23;19906;-75
2023/02/14 01:28:19;;;;;;;;;;;18.90;52.40;;;;;;7570028;23;19906;-75
2023/02/14 01:31:21;;;;;;;;;;;18.90;52.40;;;;;;7523380;23;19937;-76
2023/02/14 01:34:21;;;;;;;;;;;18.90;52.40;;;;;;7523297;23;19912;-75
2023/02/14 01:37:22;;;;;;;;;;;18.90;52.40;;;;;;7523779;23;19913;-76
2023/02/14 01:40:22;;;;;;;;;;;18.90;52.40;;;;;;7523661;23;20234;-75
2023/02/14 01:43:23;;;;;;;;;;;18.90;52.40;;;;;;7523280;23;19914;-76
2023/02/14 01:46:25;;;;;;;;;;;18.90;52.40;;;;;;7530816;23;20313;-75
2023/02/14 01:49:31;;;;;;;;;;;18.90;52.40;;;;;;7523416;23;19918;-75
2023/02/14 01:52:40;;;;;;;;;;;18.90;52.40;;;;;;7523424;23;19932;-76
2023/02/14 01:55:46;;;;;;;;;;;18.90;52.40;;;;;;7522921;23;19906;-76
2023/02/14 01:58:48;;;;;;;;;;;18.90;52.40;;;;;;7523463;23;19971;-76
2023/02/14 02:01:50;;;;;;;;;;;18.90;52.40;;;;;;7522987;23;19917;-76
2023/02/14 04:38:22;;;;;;;;;;;18.90;52.50;;;;;;7514011;23;19921;-77
2023/02/14 04:41:22;;;;;;;;;;;18.90;52.50;;;;;;7523693;23;19943;-77
2023/02/14 04:44:23;;;;;;;;;;;18.90;52.50;;;;;;7523705;23;19918;-77
2023/02/14 04:47:23;;;;;;;;;;;18.90;52.40;;;;;;7523484;23;20248;-77
2023/02/14 04:50:24;;;;;;;;;;;18.90;52.50;;;;;;7523396;23;19964;-78
2023/02/14 04:53:25;;;;;;;;;;;18.90;52.50;;;;;;7523419;23;19960;-77
2023/02/14 04:56:26;;;;;;;;;;;18.90;52.50;;;;;;7524080;23;19910;-76
2023/02/14 05:03:04;;;;;;;;;;;18.90;52.50;;;;;;7523504;23;19909;-77
2023/02/14 05:06:05;;;;;;;;;;;18.90;52.50;;;;;;7523459;23;19925;-77
2023/02/14 05:09:05;;;;;;;;;;;18.90;52.50;;;;;;7523032;23;19981;-77
2023/02/14 05:12:06;;;;;;;;;;;18.90;52.50;;;;;;7523863;23;20001;-76
2023/02/14 05:15:07;;;;;;;;;;;18.90;52.50;;;;;;7522548;23;19963;-77
2023/02/14 05:18:07;;;;;;;;;;;18.90;52.50;;;;;;7523130;23;19917;-77
2023/02/14 05:21:07;;;;;;;;;;;18.90;52.50;;;;;;7523150;23;20090;-77
2023/02/14 05:24:08;;;;;;;;;;;18.90;52.50;;;;;;7523551;23;19945;-78
2023/02/14 05:27:10;;;;;;;;;;;18.90;52.50;;;;;;7523165;23;19996;-78
2023/02/14 05:30:11;;;;;;;;;;;18.90;52.50;;;;;;7523539;23;19921;-77
2023/02/14 05:33:12;;;;;;;;;;;18.90;52.50;;;;;;7523816;23;19910;-77
2023/02/14 05:36:12;;;;;;;;;;;18.90;52.50;;;;;;7523278;23;19963;-77
2023/02/14 05:39:13;;;;;;;;;;;18.90;52.50;;;;;;7523160;23;19937;-76
2023/02/14 05:42:13;;;;;;;;;;;18.90;52.50;;;;;;7521761;23;19924;-77
2023/02/14 05:45:14;;;;;;;;;;;18.90;52.50;;;;;;7523323;23;20190;-77
2023/02/14 05:48:15;;;;;;;;;;;18.90;52.50;;;;;;7523240;23;20347;-78
2023/02/14 05:51:15;;;;;;;;;;;18.90;52.50;;;;;;7523203;23;19910;-77
2023/02/14 05:54:16;;;;;;;;;;;18.90;52.50;;;;;;7521835;23;19913;-77
2023/02/14 05:57:16;;;;;;;;;;;18.90;52.60;;;;;;7523488;23;19918;-77
2023/02/14 06:00:17;;;;;;;;;;;18.90;52.60;;;;;;7586421;23;19999;-78
2023/02/14 06:03:18;;;;;;;;;;;18.90;52.50;;;;;;7584073;23;19918;-77
2023/02/14 06:06:18;;;;;;;;;;;18.90;52.50;;;;;;7524103;23;20300;-77
2023/02/14 06:09:19;;;;;;;;;;;18.90;52.60;;;;;;7524143;23;19916;-77
2023/02/14 06:12:20;;;;;;;;;;;18.90;52.60;;;;;;7524408;23;19988;-78
2023/02/14 06:15:20;;;;;;;;;;;18.90;52.50;;;;;;7525201;23;19909;-77
2023/02/14 06:18:21;;;;;;;;;;;18.90;52.60;;;;;;7525706;23;19991;-77
2023/02/14 06:21:21;;;;;;;;;;;18.90;52.60;;;;;;7525898;23;19928;-78
2023/02/14 06:24:22;;;;;;;;;;;18.90;52.60;;;;;;7525556;23;19916;-77
2023/02/14 06:27:22;;;;;;;;;;;18.90;52.60;;;;;;7523527;23;19921;-78
2023/02/14 06:30:23;;;;;;;;;;;18.90;52.60;;;;;;7524637;23;20126;-78
2023/02/14 06:33:24;;;;;;;;;;;18.80;52.50;;;;;;7522973;23;20290;-77
2023/02/14 06:36:24;;;;;;;;;;;18.90;52.60;;;;;;7524552;23;19921;-77
2023/02/14 06:39:25;;;;;;;;;;;18.90;52.60;;;;;;7522249;23;19918;-77
2023/02/14 06:42:25;;;;;;;;;;;18.90;52.60;;;;;;7490086;23;19913;-77
2023/02/14 06:45:26;;;;;;;;;;;18.90;52.60;;;;;;7521864;23;19913;-78
2023/02/14 06:48:26;;;;;;;;;;;18.90;52.70;;;;;;7522183;23;19914;-76
2023/02/14 06:51:27;;;;;;;;;;;18.90;52.60;;;;;;7521007;23;19913;-76
2023/02/14 06:54:27;;;;;;;;;;;18.90;52.70;;;;;;7508042;23;20384;-77
2023/02/14 06:57:28;;;;;;;;;;;18.90;52.70;;;;;;7507454;23;19960;-77
2023/02/14 07:00:28;;;;;;;;;;;18.90;52.70;;;;;;7522431;23;20392;-78
2023/02/14 07:03:29;;;;;;;;;;;18.90;52.70;;;;;;7524463;23;19910;-77
2023/02/14 07:06:30;;;;;;;;;;;18.90;52.70;;;;;;7524299;23;19917;-77
2023/02/14 07:09:30;;;;;;;;;;;18.90;52.70;;;;;;7526784;23;19996;-77
2023/02/14 07:12:31;;;;;;;;;;;18.90;52.70;;;;;;7526744;23;19922;-77
2023/02/14 07:15:31;;;;;;;;;;;18.90;52.70;;;;;;7525656;23;19910;-77
2023/02/14 07:18:32;;;;;;;;;;;18.90;52.70;;;;;;7521721;23;19928;-77
2023/02/14 07:21:32;;;;;;;;;;;18.90;52.70;;;;;;7525612;23;19996;-78
2023/02/14 07:24:33;;;;;;;;;;;18.90;52.70;;;;;;7526100;23;19910;-77
2023/02/14 07:27:33;;;;;;;;;;;18.90;52.70;;;;;;7526216;23;19909;-77
2023/02/14 07:30:34;;;;;;;;;;;18.90;52.70;;;;;;7523598;23;19914;-77
2023/02/14 07:33:34;;;;;;;;;;;18.90;52.70;;;;;;7527768;23;20297;-78
2023/02/14 07:36:36;;;;;;;;;;;18.90;52.70;;;;;;7529197;23;19968;-78
2023/02/14 07:39:36;;;;;;;;;;;18.90;52.70;;;;;;7527815;23;19916;-77
2023/02/14 07:42:37;;;;;;;;;;;18.90;52.70;;;;;;7528890;23;19913;-79
2023/02/14 07:45:37;;;;;;;;;;;18.90;52.70;;;;;;7529462;23;19952;-77
2023/02/14 07:48:38;;;;;;;;;;;18.90;52.70;;;;;;7529341;23;19910;-78
2023/02/14 07:51:39;;;;;;;;;;;18.90;52.70;;;;;;7526480;23;19914;-77
2023/02/14 07:54:39;;;;;;;;;;;18.90;52.70;;;;;;7527260;23;19976;-78
2023/02/14 07:57:40;;;;;;;;;;;18.90;52.80;;;;;;7526582;23;19910;-77
2023/02/14 08:00:40;;;;;;;;;;;18.90;52.80;;;;;;7527861;23;20004;-78
2023/02/14 08:03:44;;;;;;;;;;;18.90;52.70;;;;;;7526875;23;19910;-78
2023/02/14 08:06:45;;;;;;;;;;;18.90;52.70;;;;;;7527812;23;19935;-78
2023/02/14 08:09:45;;;;;;;;;;;18.90;52.70;;;;;;7527670;23;19910;-77
2023/02/14 08:12:58;;;;;;;;;;;18.90;52.70;;;;;;7528042;23;19909;-77
2023/02/14 08:16:04;;;;;;;;;;;18.90;52.70;;;;;;7519556;23;19964;-78
2023/02/14 08:19:05;;;;;;;;;;;18.90;52.70;;;;;;7507595;23;19909;-78
2023/02/14 08:22:05;;;;;;;;;;;18.90;52.70;;;;;;7510068;23;19957;-77
2023/02/14 08:25:06;;;;;;;;;;;18.90;52.70;;;;;;7522112;23;19909;-78
2023/02/14 08:28:06;;;;;;;;;;;18.90;52.80;;;;;;7525994;23;19920;-77
2023/02/14 08:31:07;;;;;;;;;;;18.90;52.70;;;;;;7527033;23;19977;-77
2023/02/14 08:34:08;;;;;;;;;;;18.90;52.20;;;;;;7525392;23;19949;-77
2023/02/14 08:37:08;;;;;;;;;;;18.90;53.20;;;;;;7526676;23;19928;-78
2023/02/14 08:40:09;;;;;;;;;;;18.90;52.50;;;;;;7528312;23;19928;-78
2023/02/14 08:43:10;;;;;;;;;;;18.90;52.60;;;;;;7529051;23;19913;-77
2023/02/14 08:46:15;;;;;;;;;;;18.90;52.60;;;;;;7510343;23;20252;-76
2023/02/14 08:49:16;;;;;;;;;;;18.90;52.50;;;;;;7522775;23;19941;-77
2023/02/14 08:52:16;;;;;;;;;;;18.90;50.80;;;;;;7511840;23;20222;-76
2023/02/14 08:55:17;;;;;;;;;;;18.90;52.20;;;;;;7514417;23;19913;-77
2023/02/14 08:58:17;;;;;;;;;;;18.90;52.20;;;;;;7518895;23;19917;-77
2023/02/14 09:01:18;;;;;;;;;;;18.90;52.20;;;;;;7563446;23;20325;-78
2023/02/14 09:04:18;;;;;;;;;;;18.90;52.30;;;;;;7509757;23;19913;-76
2023/02/14 09:07:19;;;;;;;;;;;18.90;52.30;;;;;;7511166;23;19910;-77
2023/02/14 09:10:20;;;;;;;;;;;18.90;52.30;;;;;;7527545;23;19916;-78
2023/02/14 09:13:20;;;;;;;;;;;18.90;52.40;;;;;;7525677;23;19913;-77
2023/02/14 09:16:21;;;;;;;;;;;18.90;52.40;;;;;;7507105;23;19910;-78
2023/02/14 09:19:22;;;;;;;;;;;18.90;52.40;;;;;;7514354;23;20304;-77
2023/02/14 09:22:22;;;;;;;;;;;18.90;52.40;;;;;;7525850;23;20325;-77
2023/02/14 09:25:23;;;;;;;;;;;18.90;52.40;;;;;;7509996;23;20004;-77
2023/02/14 09:28:23;;;;;;;;;;;18.90;52.40;;;;;;7524985;23;19910;-77
2023/02/14 09:31:24;;;;;;;;;;;18.90;52.40;;;;;;7519099;23;19910;-75
2023/02/14 09:37:45;;;;;;;;;;;18.90;52.40;;;;;;7528266;23;20435;-77
2023/02/14 09:40:46;;;;;;;;;;;18.90;53.10;;;;;;7526891;23;20184;-77
2023/02/14 09:43:49;;;;;;;;;;;18.90;52.40;;;;;;7527914;23;20285;-78
2023/02/14 09:46:52;;;;;;;;;;;18.90;52.40;;;;;;7523831;23;19916;-77
2023/02/14 09:49:53;;;;;;;;;;;18.90;52.50;;;;;;7574736;23;19910;-76
2023/02/14 09:52:58;;;;;;;;;;;18.90;52.40;;;;;;7527322;23;19910;-78
2023/02/14 09:56:04;;;;;;;;;;;18.90;52.40;;;;;;7527463;23;20292;-77
2023/02/14 09:59:10;;;;;;;;;;;18.90;52.50;;;;;;7527995;23;20325;-77
2023/02/14 10:02:26;;;;;;;;;;;18.90;52.50;;;;;;7524569;23;19918;-78
2023/02/14 10:05:33;;;;;;;;;;;18.90;52.40;;;;;;7525005;23;20296;-78
2023/02/14 10:08:39;;;;;;;;;;;18.90;52.50;;;;;;7525765;23;19989;-77
2023/02/14 10:11:42;;;;;;;;;;;18.90;52.40;;;;;;7528624;23;19913;-78
2023/02/14 10:14:43;;;;;;;;;;;18.90;52.50;;;;;;7525438;23;20403;-75
2023/02/14 10:17:45;;;;;;;;;;;18.90;52.50;;;;;;7524062;23;19910;-76
2023/02/14 10:21:06;;;;;;;;;;;18.90;52.50;;;;;;7526486;23;20014;-77
2023/02/14 10:24:15;;;;;;;;;;;18.90;52.50;;;;;;7526018;23;20360;-78
2023/02/14 10:27:21;;;;;;;;;;;18.90;52.50;;;;;;7526000;23;19910;-77
2023/02/14 10:30:22;;;;;;;;;;;18.90;52.50;;;;;;7525219;23;20019;-78
2023/02/14 10:33:27;;;;;;;;;;;18.90;52.50;;;;;;7525941;23;19972;-77
2023/02/14 10:36:37;;;;;;;;;;;18.90;52.50;;;;;;7525570;23;20386;-79
2023/02/14 10:39:48;;;;;;;;;;;18.90;52.50;;;;;;7525730;23;20404;-78
2023/02/14 10:43:07;;;;;;;;;;;18.90;52.50;;;;;;7525766;23;20210;-77
2023/02/14 10:46:12;;;;;;;;;;;18.90;52.40;;;;;;7525761;23;19996;-78
2023/02/14 10:49:25;;;;;;;;;;;18.90;52.50;;;;;;7534551;23;19913;-77
2023/02/14 10:52:31;;;;;;;;;;;18.90;52.50;;;;;;7525859;23;19910;-78
2023/02/14 10:55:31;;;;;;;;;;;18.90;52.40;;;;;;7524852;23;19964;-79
2023/02/14 10:58:35;;;;;;;;;;;18.90;52.40;;;;;;7525665;23;19909;-80
2023/02/14 11:01:36;;;;;;;;;;;18.90;52.30;;;;;;7526488;23;20008;-78
2023/02/14 11:04:36;;;;;;;;;;;18.90;52.10;;;;;;7531709;23;20190;-79
2023/02/14 11:07:37;;;;;;;;;;;18.90;52.10;;;;;;7531710;23;20325;-78
2023/02/14 11:10:37;;;;;;;;;;;18.90;52.10;;;;;;7527731;23;20334;-78
2023/02/14 11:13:39;;;;;;;;;;;19.00;52.20;;;;;;7501657;23;19914;-75
2023/02/14 11:16:39;;;;;;;;;;;19.00;52.10;;;;;;7507639;23;19910;-77
2023/02/14 11:19:40;;;;;;;;;;;19.00;52.00;;;;;;7529919;23;19967;-77
2023/02/14 11:22:40;;;;;;;;;;;19.00;52.20;;;;;;7529740;23;19940;-77
2023/02/14 11:25:48;;;;;;;;;;;19.10;52.00;;;;;;7529001;23;19910;-77
2023/02/14 11:28:50;;;;;;;;;;;19.10;51.90;;;;;;7526801;23;19909;-76
2023/02/14 11:31:51;;;;;;;;;;;19.20;51.90;;;;;;7526644;23;19909;-76
2023/02/14 11:35:05;;;;;;;;;;;19.10;51.70;;;;;;7525272;23;20292;-76
2023/02/14 11:38:23;;;;;;;;;;;19.20;51.60;;;;;;7526251;23;20276;-76
2023/02/14 11:41:23;;;;;;;;;;;19.10;51.70;;;;;;7526054;23;20341;-76
2023/02/14 11:44:25;;;;;;;;;;;19.10;51.80;;;;;;7526216;23;19917;-76
2023/02/14 11:47:27;;;;;;;;;;;19.10;51.90;;;;;;7525935;23;20329;-77
2023/02/14 11:50:28;;;;;;;;;;;19.10;52.00;;;;;;7523612;23;19920;-76
2023/02/14 11:53:35;;;;;;;;;;;19.10;52.00;;;;;;7525992;23;19910;-76
2023/02/14 11:56:54;;;;;;;;;;;19.10;52.10;;;;;;7526072;23;20325;-77
2023/02/14 11:59:55;;;;;;;;;;;19.10;52.10;;;;;;7526659;23;19973;-76
2023/02/14 12:03:03;;;;;;;;;;;19.10;52.10;;;;;;7573374;23;19971;-76
2023/02/14 12:06:04;;;;;;;;;;;19.00;52.10;;;;;;7527237;23;19910;-76
2023/02/14 12:09:26;;;;;;;;;;;19.00;52.10;;;;;;7527270;23;20333;-77
2023/02/14 12:12:27;;;;;;;;;;;19.00;52.10;;;;;;7527659;23;19964;-76
2023/02/14 12:15:34;;;;;;;;;;;19.00;52.20;;;;;;7526694;23;19945;-76
2023/02/14 12:18:55;;;;;;;;;;;19.00;52.20;;;;;;7514216;23;20363;-75
2023/02/14 12:21:58;;;;;;;;;;;19.00;51.30;;;;;;7526180;23;19921;-76
2023/02/14 12:25:08;;;;;;;;;;;19.00;52.10;;;;;;7523818;23;20329;-76
2023/02/14 12:28:12;;;;;;;;;;;19.00;52.10;;;;;;7526619;23;20194;-76
2023/02/14 12:31:12;;;;;;;;;;;19.00;52.10;;;;;;7527481;23;19910;-76
2023/02/14 12:34:13;;;;;;;;;;;19.00;52.10;;;;;;7527280;23;19910;-77
2023/02/14 12:37:23;;;;;;;;;;;19.00;52.10;;;;;;7507289;23;19917;-77
2023/02/14 12:40:26;;;;;;;;;;;19.00;52.00;;;;;;7527127;23;19975;-76
2023/02/14 12:43:33;;;;;;;;;;;19.10;52.10;;;;;;7574122;23;19914;-76
2023/02/14 12:46:45;;;;;;;;;;;19.10;52.00;;;;;;7527890;23;20304;-77
2023/02/14 12:49:57;;;;;;;;;;;19.10;52.00;;;;;;7525494;23;19909;-77
2023/02/14 12:53:07;;;;;;;;;;;19.10;52.00;;;;;;7527367;23;19963;-76
2023/02/14 12:56:08;;;;;;;;;;;19.10;52.00;;;;;;7527481;23;19968;-77
2023/02/14 12:59:08;;;;;;;;;;;19.10;52.00;;;;;;7527551;23;19945;-76
2023/02/14 13:02:19;;;;;;;;;;;19.10;51.90;;;;;;7526954;23;19921;-76
2023/02/14 13:05:34;;;;;;;;;;;19.10;51.90;;;;;;7526656;23;19917;-76
2023/02/14 13:09:00;;;;;;;;;;;19.10;51.90;;;;;;7524126;23;19910;-77
2023/02/14 13:12:10;;;;;;;;;;;19.10;51.90;;;;;;7527888;23;20288;-77
2023/02/14 13:15:24;;;;;;;;;;;19.10;51.90;;;;;;7573874;23;19988;-77
2023/02/14 13:18:43;;;;;;;;;;;19.10;52.60;;;;;;7525833;23;20013;-76
2023/02/14 13:21:44;;;;;;;;;;;19.10;51.90;;;;;;7676163;23;20332;-78
2023/02/14 13:24:46;;;;;;;;;;;19.10;52.00;;;;;;7525288;23;19909;-77
2023/02/14 13:27:47;;;;;;;;;;;19.10;52.00;;;;;;7523885;23;20344;-76
2023/02/14 13:30:49;;;;;;;;;;;19.10;52.00;;;;;;7524068;23;19909;-76
2023/02/14 13:33:57;;;;;;;;;;;19.10;52.00;;;;;;7519721;23;20211;-76
2023/02/14 13:36:59;;;;;;;;;;;19.10;52.00;;;;;;7524537;23;19928;-76
2023/02/14 13:40:03;;;;;;;;;;;19.10;52.10;;;;;;7571685;23;19945;-77
2023/02/14 13:43:03;;;;;;;;;;;19.10;52.10;;;;;;7517414;23;19929;-76
2023/02/14 13:46:04;;;;;;;;;;;19.10;52.10;;;;;;7524820;23;20238;-76
2023/02/14 13:49:18;;;;;;;;;;;19.00;52.00;;;;;;7524852;23;20404;-76
2023/02/14 13:52:38;;;;;;;;;;;19.10;52.10;;;;;;7528526;23;19926;-76
2023/02/14 13:55:42;;;;;;;;;;;19.10;52.10;;;;;;7511071;23;19916;-76
2023/02/14 13:58:53;;;;;;;;;;;19.10;52.10;;;;;;7525428;23;19909;-76
2023/02/14 14:01:55;;;;;;;;;;;19.10;52.10;;;;;;7572734;23;19951;-76
2023/02/14 14:04:55;;;;;;;;;;;19.00;52.10;;;;;;7524190;23;19991;-76
2023/02/14 14:08:15;;;;;;;;;;;19.10;52.20;;;;;;7526009;23;20261;-76
2023/02/14 14:11:21;;;;;;;;;;;19.00;52.20;;;;;;7525952;23;19909;-76
2023/02/14 14:14:34;;;;;;;;;;;19.00;52.20;;;;;;7529438;23;20291;-76
2023/02/14 14:17:35;;;;;;;;;;;19.10;52.20;;;;;;7526205;23;20240;-76
2023/02/14 14:20:41;;;;;;;;;;;19.00;52.10;;;;;;7571960;23;19918;-76
2023/02/14 14:23:41;;;;;;;;;;;19.00;52.10;;;;;;7526196;23;19979;-75
2023/02/14 14:27:01;;;;;;;;;;;19.10;52.20;;;;;;7526263;23;19980;-76
2023/02/14 14:30:14;;;;;;;;;;;19.10;52.10;;;;;;7524952;23;19955;-73
2023/02/14 14:33:16;;;;;;;;;;;19.00;52.10;;;;;;7525818;23;20214;-76
2023/02/14 14:36:22;;;;;;;;;;;19.10;52.10;;;;;;7524403;23;19922;-76
2023/02/14 14:39:27;;;;;;;;;;;19.10;52.10;;;;;;7525493;23;19921;-76
2023/02/14 14:42:29;;;;;;;;;;;19.10;52.00;;;;;;7525237;23;19922;-76
2023/02/14 14:45:33;;;;;;;;;;;19.10;52.10;;;;;;7525003;23;19980;-76
2023/02/14 14:48:38;;;;;;;;;;;19.10;52.50;;;;;;7525057;23;20336;-76
2023/02/14 14:51:38;;;;;;;;;;;19.10;51.60;;;;;;7524354;23;19988;-76
2023/02/14 14:54:39;;;;;;;;;;;19.10;51.80;;;;;;7525132;23;19916;-76
2023/02/14 14:57:39;;;;;;;;;;;19.20;51.40;;;;;;7524823;23;20321;-76
2023/02/14 15:00:49;;;;;;;;;;;19.10;51.50;;;;;;7523248;23;19925;-76
2023/02/14 15:03:50;;;;;;;;;;;19.10;51.60;;;;;;7524999;23;19910;-76
2023/02/14 15:06:51;;;;;;;;;;;19.10;51.70;;;;;;7524210;23;19996;-76
2023/02/14 15:09:52;;;;;;;;;;;19.00;51.70;;;;;;7519593;23;19906;-76
2023/02/14 15:16:27;;;;;;;;;;;19.10;51.80;;;;;;7524624;23;19905;-76
2023/02/14 15:19:37;;;;;;;;;;;19.10;51.80;;;;;;7524570;23;19909;-77
2023/02/14 15:22:43;;;;;;;;;;;19.10;51.90;;;;;;7507406;23;19964;-76
2023/02/14 15:25:44;;;;;;;;;;;19.00;51.90;;;;;;7522850;23;19906;-76
2023/02/14 15:28:52;;;;;;;;;;;19.00;51.90;;;;;;7524404;23;19968;-76
2023/02/14 15:31:54;;;;;;;;;;;19.00;51.90;;;;;;7523826;23;19910;-76
2023/02/14 15:34:55;;;;;;;;;;;19.10;51.90;;;;;;7526452;23;19912;-76
2023/02/14 15:37:57;;;;;;;;;;;19.10;51.80;;;;;;7525923;23;20215;-77
2023/02/14 15:40:58;;;;;;;;;;;19.00;51.70;;;;;;7524774;23;20452;-76
2023/02/14 15:43:59;;;;;;;;;;;19.10;51.80;;;;;;7573469;23;19924;-76
2023/02/14 15:47:01;;;;;;;;;;;19.10;51.80;;;;;;7504652;23;19913;-76
2023/02/14 15:50:02;;;;;;;;;;;19.10;51.80;;;;;;7525672;23;19910;-76
2023/02/14 15:53:25;;;;;;;;;;;19.10;51.80;;;;;;7525136;23;20294;-76
2023/02/14 15:56:28;;;;;;;;;;;19.10;51.80;;;;;;7517477;23;19940;-76
2023/02/14 15:59:32;;;;;;;;;;;19.10;51.70;;;;;;7525247;23;19913;-76
2023/02/14 16:02:36;;;;;;;;;;;19.10;51.80;;;;;;7525064;23;20294;-77
2023/02/14 16:05:37;;;;;;;;;;;19.10;51.80;;;;;;7525337;23;19985;-76
2023/02/14 16:08:39;;;;;;;;;;;19.10;52.50;;;;;;7525403;23;19936;-76
2023/02/14 16:11:40;;;;;;;;;;;19.10;51.80;;;;;;7524689;23;20304;-76
2023/02/14 16:14:43;;;;;;;;;;;19.10;51.80;;;;;;7525620;23;19909;-76
2023/02/14 16:17:44;;;;;;;;;;;19.10;51.80;;;;;;7533654;23;20228;-77
2023/02/14 16:20:50;;;;;;;;;;;19.10;51.80;;;;;;7517042;23;19917;-76
2023/02/14 16:24:05;;;;;;;;;;;19.10;51.80;;;;;;7525019;23;20039;-76
2023/02/14 16:27:06;;;;;;;;;;;19.10;52.60;;;;;;7523378;23;19910;-76
2023/02/14 16:30:07;;;;;;;;;;;19.10;51.90;;;;;;7525337;23;20336;-77
2023/02/14 16:33:14;;;;;;;;;;;19.10;51.90;;;;;;7532829;23;20252;-76
2023/02/14 16:36:15;;;;;;;;;;;19.10;51.90;;;;;;7525212;23;20329;-76
2023/02/14 16:39:16;;;;;;;;;;;19.10;51.90;;;;;;7675328;23;19918;-77
2023/02/14 16:42:17;;;;;;;;;;;19.10;51.90;;;;;;7525080;23;19921;-77
2023/02/14 16:45:18;;;;;;;;;;;19.10;51.90;;;;;;7524214;23;20360;-77
2023/02/14 16:48:18;;;;;;;;;;;19.10;51.90;;;;;;7524437;23;20266;-76
2023/02/14 16:51:23;;;;;;;;;;;19.10;51.90;;;;;;7524613;23;19996;-76
2023/02/14 16:54:25;;;;;;;;;;;19.10;51.90;;;;;;7525503;23;19917;-76
2023/02/14 16:57:31;;;;;;;;;;;19.10;51.90;;;;;;7571961;23;19918;-76
2023/02/14 17:00:31;;;;;;;;;;;19.10;51.90;;;;;;7517297;23;20406;-77
2023/02/14 17:03:32;;;;;;;;;;;19.10;51.90;;;;;;7525426;23;19910;-77
2023/02/14 17:06:32;;;;;;;;;;;19.10;51.90;;;;;;7525463;23;20276;-76
2023/02/14 17:09:37;;;;;;;;;;;19.10;51.90;;;;;;7524348;23;19910;-76
2023/02/14 17:12:40;;;;;;;;;;;19.10;51.90;;;;;;7525282;23;19948;-76
2023/02/14 17:15:41;;;;;;;;;;;19.10;52.00;;;;;;7523639;23;19996;-77
2023/02/14 17:18:46;;;;;;;;;;;19.10;52.60;;;;;;7523201;23;20241;-75
2023/02/14 17:21:47;;;;;;;;;;;19.10;52.00;;;;;;7530039;23;19917;-76
2023/02/14 17:24:48;;;;;;;;;;;19.10;52.00;;;;;;7521948;23;19914;-76
2023/02/14 17:27:48;;;;;;;;;;;19.10;52.00;;;;;;7522448;23;19925;-76
2023/02/14 17:30:49;;;;;;;;;;;19.10;52.00;;;;;;7522024;23;19910;-76
2023/02/14 17:33:49;;;;;;;;;;;19.10;52.00;;;;;;7522620;23;19917;-77
2023/02/14 17:36:50;;;;;;;;;;;19.10;52.00;;;;;;7522600;23;20407;-77
2023/02/14 17:39:51;;;;;;;;;;;19.10;52.00;;;;;;7522407;23;19917;-76
2023/02/14 17:42:52;;;;;;;;;;;19.10;52.00;;;;;;7522751;23;19910;-76
2023/02/14 17:45:54;;;;;;;;;;;19.10;52.00;;;;;;7522585;23;19917;-76
2023/02/14 17:48:55;;;;;;;;;;;19.10;52.00;;;;;;7522722;23;20329;-76
2023/02/14 17:51:56;;;;;;;;;;;19.10;52.00;;;;;;7569553;23;19910;-77
2023/02/14 17:54:56;;;;;;;;;;;19.10;52.00;;;;;;7522724;23;20210;-77
2023/02/14 17:57:57;;;;;;;;;;;19.10;52.00;;;;;;7569502;23;19913;-76
2023/02/14 18:01:01;;;;;;;;;;;19.10;52.00;;;;;;7519620;23;19922;-76
2023/02/14 18:04:02;;;;;;;;;;;19.10;52.40;;;;;;7523201;23;19916;-77
2023/02/14 18:07:03;;;;;;;;;;;19.10;52.00;;;;;;7522496;23;19910;-76
2023/02/14 18:10:04;;;;;;;;;;;19.10;52.00;;;;;;7522760;23;19935;-76
2023/02/14 18:13:05;;;;;;;;;;;19.10;52.00;;;;;;7569270;23;19961;-76
2023/02/14 18:16:13;;;;;;;;;;;19.10;52.10;;;;;;7569775;23;19910;-76
2023/02/14 18:19:14;;;;;;;;;;;19.10;52.10;;;;;;7522014;23;20190;-76
2023/02/14 18:22:15;;;;;;;;;;;19.10;52.10;;;;;;7522208;23;20323;-77
2023/02/14 18:25:15;;;;;;;;;;;19.10;52.10;;;;;;7522038;23;19909;-78
2023/02/14 18:28:16;;;;;;;;;;;19.10;52.20;;;;;;7522716;23;20234;-76
2023/02/14 18:31:18;;;;;;;;;;;19.20;52.60;;;;;;7567818;23;19936;-76
2023/02/14 18:34:18;;;;;;;;;;;19.20;52.30;;;;;;7521516;23;19913;-77
2023/02/14 18:37:19;;;;;;;;;;;19.20;52.20;;;;;;7521520;23;19952;-76
2023/02/14 18:40:19;;;;;;;;;;;19.10;52.10;;;;;;7522025;23;20008;-77
2023/02/14 18:43:20;;;;;;;;;;;19.10;52.20;;;;;;7521970;23;20324;-76
2023/02/14 18:46:21;;;;;;;;;;;19.10;52.20;;;;;;7521391;23;19913;-76
2023/02/14 18:49:22;;;;;;;;;;;19.10;52.20;;;;;;7520874;23;20353;-77
2023/02/14 18:52:22;;;;;;;;;;;19.10;52.30;;;;;;7521247;23;19914;-76
2023/02/14 18:55:23;;;;;;;;;;;19.10;52.30;;;;;;7522121;23;19914;-76
2023/02/14 18:58:24;;;;;;;;;;;19.10;52.40;;;;;;7521192;23;20245;-76
2023/02/14 19:01:27;;;;;;;;;;;19.10;52.30;;;;;;7567893;23;19925;-75
2023/02/14 19:04:28;;;;;;;;;;;19.10;52.40;;;;;;7521368;23;19963;-77
2023/02/14 19:07:29;;;;;;;;;;;19.10;52.30;;;;;;7567828;23;19909;-76
2023/02/14 19:10:29;;;;;;;;;;;19.10;52.30;;;;;;7568269;23;20329;-76
2023/02/14 19:13:31;;;;;;;;;;;19.10;52.30;;;;;;7521786;23;19992;-76
2023/02/14 19:16:32;;;;;;;;;;;19.10;52.30;;;;;;7530509;23;19910;-76
2023/02/14 19:19:33;;;;;;;;;;;19.10;52.30;;;;;;7520441;23;19909;-76
2023/02/14 19:22:37;;;;;;;;;;;19.10;52.30;;;;;;7521185;23;19969;-77
2023/02/14 19:25:38;;;;;;;;;;;19.10;52.30;;;;;;7522007;23;19914;-76
2023/02/14 19:28:39;;;;;;;;;;;19.00;52.30;;;;;;7521404;23;19917;-76
2023/02/14 19:31:41;;;;;;;;;;;19.10;52.40;;;;;;7568304;23;19921;-76
2023/02/14 19:34:41;;;;;;;;;;;19.10;52.30;;;;;;7521920;23;19917;-76
2023/02/14 19:37:42;;;;;;;;;;;19.10;52.40;;;;;;7521230;23;19917;-76
2023/02/14 19:40:43;;;;;;;;;;;19.10;52.30;;;;;;7520627;23;19917;-77
2023/02/14 19:43:44;;;;;;;;;;;19.10;52.30;;;;;;7521846;23;19916;-76
2023/02/14 19:46:46;;;;;;;;;;;19.10;52.40;;;;;;7521805;23;19941;-76
2023/02/14 19:49:46;;;;;;;;;;;19.00;52.30;;;;;;7520861;23;20228;-76
2023/02/14 19:52:47;;;;;;;;;;;19.10;52.30;;;;;;7521165;23;20264;-76
2023/02/14 19:55:47;;;;;;;;;;;19.10;52.40;;;;;;7522159;23;19913;-76
2023/02/14 19:58:49;;;;;;;;;;;19.00;52.30;;;;;;7528303;23;19925;-76
2023/02/14 20:01:52;;;;;;;;;;;19.10;52.40;;;;;;7567168;23;19964;-76
2023/02/14 20:04:57;;;;;;;;;;;19.00;52.30;;;;;;7520879;23;19964;-76
2023/02/14 20:07:58;;;;;;;;;;;19.00;52.30;;;;;;7519443;23;20387;-76
2023/02/14 20:10:58;;;;;;;;;;;19.00;52.30;;;;;;7521628;23;20163;-77
2023/02/14 20:13:59;;;;;;;;;;;19.10;52.40;;;;;;7521543;23;20010;-77
2023/02/14 20:17:00;;;;;;;;;;;19.00;52.40;;;;;;7521691;23;19928;-76
2023/02/14 20:20:01;;;;;;;;;;;19.10;52.40;;;;;;7523002;23;20253;-76
2023/02/14 20:23:01;;;;;;;;;;;19.00;52.40;;;;;;7523824;23;19920;-77
2023/02/14 20:26:02;;;;;;;;;;;19.00;52.30;;;;;;7524286;23;19913;-76